Aegean Princess — ZDID9 — position and weather

sailwx.info

Track history (hours):
 
Tides and Currents Weather Stations Pressure Air Temp Water Temp Dewpoint Dewpoint Depression Visibility Wind Speed Wind Dir Waves Ship Positions

Aegean Princess

Last reported at 2014-Dec-20 18:10 UTC. Time now 2014-Dec-20 19:24 UTC.
Position N 36°07' W 005°18'.

Length 100 m; draft 7 m.

Type: Ship. MMSI: 236111476.

Date/timePositionNaut miles runAvg speedWind from/ knotsBaromVisibWave heightAir tempDewpointWater temp
2014-Dec-20 18:10N 36°07' W 005°18'0 0.0
2014-Dec-20 17:28N 36°07' W 005°18'0 0.0
2014-Dec-20 16:31N 36°07' W 005°18'3 2.7
2014-Dec-20 15:33N 36°07' W 005°21'0 0.1
2014-Dec-20 14:14N 36°07' W 005°21'0 0.1
2014-Dec-20 12:17N 36°07' W 005°21'0 0.1
2014-Dec-20 11:17N 36°07' W 005°21'0 0.1
2014-Dec-20 10:33N 36°07' W 005°21'2 2.4
2014-Dec-20 09:33N 36°08' W 005°19'0 0.1
2014-Dec-20 08:26N 36°08' W 005°18'0 0.0
2014-Dec-20 07:32N 36°08' W 005°18'0 0.0
2014-Dec-20 06:26N 36°08' W 005°18'0 0.1
2014-Dec-20 05:31N 36°08' W 005°18'0 0.0
2014-Dec-20 04:31N 36°08' W 005°19'0 0.0
2014-Dec-20 03:25N 36°08' W 005°18'0 0.0
2014-Dec-20 02:19N 36°08' W 005°18'0 0.0
2014-Dec-20 01:25N 36°08' W 005°18'0 0.0
2014-Dec-20 00:28N 36°08' W 005°18'0 0.0
2014-Dec-19 23:28N 36°08' W 005°18'0 0.0
2014-Dec-19 22:31N 36°08' W 005°18'0 0.1
2014-Dec-19 21:04N 36°08' W 005°18'0 0.1
2014-Dec-19 20:22N 36°08' W 005°18'0 0.0
2014-Dec-19 19:31N 36°08' W 005°18'0 0.0
2014-Dec-19 15:14N 36°08' W 005°18'3 5.0
2014-Dec-19 14:33N 36°06' W 005°22'1 0.7
2014-Dec-19 12:31N 36°07' W 005°22'0 0.1
2014-Dec-19 09:31N 36°07' W 005°22'0 0.1
2014-Dec-19 07:28N 36°07' W 005°22'2 2.5
2014-Dec-19 06:33N 36°07' W 005°19'0 0.4
2014-Dec-19 05:33N 36°07' W 005°19'0 0.0
2014-Dec-19 04:33N 36°07' W 005°19'0 0.0
2014-Dec-19 00:32N 36°07' W 005°19'0 0.1
2014-Dec-18 22:32N 36°07' W 005°19'0 0.1
2014-Dec-18 21:32N 36°07' W 005°19'0 0.1
2014-Dec-18 20:32N 36°07' W 005°19'0 0.1
2014-Dec-18 19:32N 36°07' W 005°19'0 0.1
2014-Dec-18 18:33N 36°07' W 005°19'2 1.1
2014-Dec-18 16:23N 36°07' W 005°22'0 0.0
2014-Dec-18 15:26N 36°07' W 005°22'0 0.1
2014-Dec-18 14:26N 36°07' W 005°22'0 0.0
2014-Dec-18 13:17N 36°07' W 005°22'0 0.1
2014-Dec-18 12:29N 36°07' W 005°22'0 0.1
2014-Dec-18 11:11N 36°07' W 005°22'0 0.1
2014-Dec-18 10:32N 36°07' W 005°22'0 0.0
2014-Dec-18 09:32N 36°07' W 005°22'0 0.0
2014-Dec-18 08:32N 36°07' W 005°22'0 0.1
2014-Dec-18 07:29N 36°07' W 005°22'2 2.0
2014-Dec-18 06:20N 36°09' W 005°22'0 0.1
2014-Dec-18 05:32N 36°09' W 005°22'0 0.0
2014-Dec-17 23:32N 36°09' W 005°22'0 0.0
2014-Dec-17 22:23N 36°09' W 005°22'0 0.0
2014-Dec-17 21:32N 36°09' W 005°22'0 0.0
2014-Dec-17 20:20N 36°09' W 005°22'0 0.0
2014-Dec-17 19:26N 36°09' W 005°22'0 0.0
2014-Dec-17 16:31N 36°09' W 005°22'0 0.0
2014-Dec-17 15:25N 36°09' W 005°22'0 0.0
2014-Dec-17 14:31N 36°09' W 005°22'3 3.5
2014-Dec-17 13:33N 36°06' W 005°22'9 9.4
2014-Dec-17 12:33N 35°57' W 005°27'3 0.2
2014-Dec-16 22:19N 35°56' W 005°30'7 8.3
2014-Dec-16 21:30N 36°01' W 005°24'8 7.6
2014-Dec-16 20:30N 36°08' W 005°22'0 0.0
2014-Dec-16 19:30N 36°08' W 005°22'0 0.0
2014-Dec-16 18:30N 36°08' W 005°22'0 0.0
2014-Dec-16 17:30N 36°08' W 005°22'0 0.1
2014-Dec-16 16:30N 36°08' W 005°22'0 0.2
2014-Dec-16 15:33N 36°08' W 005°22'1 0.5
2014-Dec-16 14:29N 36°08' W 005°23'0 0.2
2014-Dec-16 13:30N 36°08' W 005°23'0 0.0
2014-Dec-16 12:15N 36°08' W 005°23'0 0.0
2014-Dec-16 11:27N 36°08' W 005°23'0 0.0
2014-Dec-16 10:27N 36°08' W 005°23'0 0.0
2014-Dec-16 09:33N 36°08' W 005°23'0 0.0
2014-Dec-16 08:21N 36°08' W 005°23'0 0.0
2014-Dec-16 07:20N 36°08' W 005°23'0 0.2
2014-Dec-16 06:32N 36°08' W 005°23'0 0.0
2014-Dec-16 05:33N 36°08' W 005°23'1 0.7
2014-Dec-16 04:07N 36°07' W 005°22'0 0.1
2014-Dec-16 03:31N 36°07' W 005°22'0 0.0
2014-Dec-16 02:25N 36°07' W 005°22'0 0.0
2014-Dec-16 01:10N 36°07' W 005°22'0 0.0
2014-Dec-16 00:16N 36°07' W 005°22'0 0.0
2014-Dec-15 23:28N 36°07' W 005°22'0 0.0
2014-Dec-15 22:31N 36°07' W 005°22'0 0.0
2014-Dec-15 21:31N 36°07' W 005°22'2 2.2
2014-Dec-15 20:33N 36°09' W 005°23'0 0.3
2014-Dec-15 19:22N 36°09' W 005°22'0 0.0
2014-Dec-15 17:19N 36°09' W 005°22'1 0.8
2014-Dec-15 16:34N 36°09' W 005°23'4 4.0
2014-Dec-15 15:33N 36°07' W 005°18'0 0.0
2014-Dec-15 14:12N 36°07' W 005°18'0 0.0
2014-Dec-15 13:27N 36°07' W 005°18'0 0.0
2014-Dec-15 12:03N 36°07' W 005°18'0 0.0
2014-Dec-15 11:33N 36°07' W 005°18'0 0.0
2014-Dec-15 08:33N 36°07' W 005°18'0 0.0
2014-Dec-15 07:33N 36°07' W 005°18'0 0.0
2014-Dec-15 06:33N 36°07' W 005°18'0 0.0
2014-Dec-15 05:09N 36°07' W 005°18'0 0.0
2014-Dec-15 04:30N 36°07' W 005°18'0 0.1
2014-Dec-15 03:30N 36°07' W 005°18'0 0.0
2014-Dec-15 02:33N 36°07' W 005°18'0 0.1
2014-Dec-15 01:24N 36°07' W 005°18'0 0.1
2014-Dec-15 00:33N 36°07' W 005°18'0 0.0
2014-Dec-14 23:09N 36°07' W 005°18'0 0.0
2014-Dec-14 22:26N 36°07' W 005°18'0 0.0
2014-Dec-14 21:32N 36°07' W 005°18'0 0.0
2014-Dec-14 20:32N 36°07' W 005°18'3 3.3
2014-Dec-14 19:33N 36°06' W 005°22'2 1.0
2014-Dec-14 17:09N 36°08' W 005°23'0 0.0
2014-Dec-14 15:33N 36°08' W 005°23'0 0.0
2014-Dec-14 13:21N 36°08' W 005°23'0 0.0
2014-Dec-14 12:05N 36°08' W 005°23'0 0.1
2014-Dec-14 11:29N 36°08' W 005°23'0 0.0
2014-Dec-14 10:33N 36°08' W 005°23'4 3.7
2014-Dec-14 09:33N 36°06' W 005°19'1 1.1
2014-Dec-14 08:29N 36°07' W 005°18'0 0.0
2014-Dec-14 07:32N 36°07' W 005°18'0 0.0
2014-Dec-14 06:32N 36°07' W 005°18'0 0.0
2014-Dec-14 05:29N 36°07' W 005°18'0 0.0
2014-Dec-14 04:17N 36°07' W 005°18'0 0.0
2014-Dec-14 03:32N 36°07' W 005°18'0 0.0
2014-Dec-14 02:32N 36°07' W 005°18'0 0.0
2014-Dec-14 01:32N 36°07' W 005°18'0 0.0
2014-Dec-14 00:29N 36°07' W 005°18'0 0.1
2014-Dec-13 23:32N 36°07' W 005°18'1 1.0
2014-Dec-13 22:33N 36°06' W 005°19'3 2.8
2014-Dec-13 21:26N 36°08' W 005°22'0 0.0
2014-Dec-13 20:32N 36°08' W 005°22'0 0.1
2014-Dec-13 18:32N 36°07' W 005°22'0 0.1
2014-Dec-13 17:29N 36°08' W 005°22'0 0.1
2014-Dec-13 16:32N 36°08' W 005°22'0 0.0
2014-Dec-13 15:32N 36°08' W 005°22'0 0.0
2014-Dec-13 14:29N 36°08' W 005°22'0 0.0
2014-Dec-13 13:32N 36°08' W 005°22'0 0.2
2014-Dec-13 12:10N 36°07' W 005°22'0 0.0
2014-Dec-13 09:22N 36°07' W 005°22'3 3.2
2014-Dec-13 08:33N 36°05' W 005°22'10 9.5
2014-Dec-13 07:33N 35°57' W 005°29'7 0.2
2014-Dec-12 03:09N 35°52' W 005°35'  
Track history (hours):
 
Tides and Currents Weather Stations Pressure Air Temp Water Temp Dewpoint Dewpoint Depression Visibility Wind Speed Wind Dir Waves Ship Positions

Aegean Princess

Last reported at 2014-Dec-20 18:10 UTC. Time now 2014-Dec-20 19:24 UTC.
Position N 36°07' W 005°18'.

Length 100 m; draft 7 m.

Type: Ship. MMSI: 236111476.

Date/timePositionNaut miles runAvg speedWind from/ knotsBaromVisibWave heightAir tempDewpointWater temp
2014-Dec-20 18:10N 36°07' W 005°18'0 0.0
2014-Dec-20 17:28N 36°07' W 005°18'0 0.0
2014-Dec-20 16:31N 36°07' W 005°18'3 2.7
2014-Dec-20 15:33N 36°07' W 005°21'0 0.1
2014-Dec-20 14:14N 36°07' W 005°21'0 0.1
2014-Dec-20 12:17N 36°07' W 005°21'0 0.1
2014-Dec-20 11:17N 36°07' W 005°21'0 0.1
2014-Dec-20 10:33N 36°07' W 005°21'2 2.4
2014-Dec-20 09:33N 36°08' W 005°19'0 0.1
2014-Dec-20 08:26N 36°08' W 005°18'0 0.0
2014-Dec-20 07:32N 36°08' W 005°18'0 0.0
2014-Dec-20 06:26N 36°08' W 005°18'0 0.1
2014-Dec-20 05:31N 36°08' W 005°18'0 0.0
2014-Dec-20 04:31N 36°08' W 005°19'0 0.0
2014-Dec-20 03:25N 36°08' W 005°18'0 0.0
2014-Dec-20 02:19N 36°08' W 005°18'0 0.0
2014-Dec-20 01:25N 36°08' W 005°18'0 0.0
2014-Dec-20 00:28N 36°08' W 005°18'0 0.0
2014-Dec-19 23:28N 36°08' W 005°18'0 0.0
2014-Dec-19 22:31N 36°08' W 005°18'0 0.1
2014-Dec-19 21:04N 36°08' W 005°18'0 0.1
2014-Dec-19 20:22N 36°08' W 005°18'0 0.0
2014-Dec-19 19:31N 36°08' W 005°18'0 0.0
2014-Dec-19 15:14N 36°08' W 005°18'3 5.0
2014-Dec-19 14:33N 36°06' W 005°22'1 0.7
2014-Dec-19 12:31N 36°07' W 005°22'0 0.1
2014-Dec-19 09:31N 36°07' W 005°22'0 0.1
2014-Dec-19 07:28N 36°07' W 005°22'2 2.5
2014-Dec-19 06:33N 36°07' W 005°19'0 0.4
2014-Dec-19 05:33N 36°07' W 005°19'0 0.0
2014-Dec-19 04:33N 36°07' W 005°19'0 0.0
2014-Dec-19 00:32N 36°07' W 005°19'0 0.1
2014-Dec-18 22:32N 36°07' W 005°19'0 0.1
2014-Dec-18 21:32N 36°07' W 005°19'0 0.1
2014-Dec-18 20:32N 36°07' W 005°19'0 0.1
2014-Dec-18 19:32N 36°07' W 005°19'0 0.1
2014-Dec-18 18:33N 36°07' W 005°19'2 1.1
2014-Dec-18 16:23N 36°07' W 005°22'0 0.0
2014-Dec-18 15:26N 36°07' W 005°22'0 0.1
2014-Dec-18 14:26N 36°07' W 005°22'0 0.0
2014-Dec-18 13:17N 36°07' W 005°22'0 0.1
2014-Dec-18 12:29N 36°07' W 005°22'0 0.1
2014-Dec-18 11:11N 36°07' W 005°22'0 0.1
2014-Dec-18 10:32N 36°07' W 005°22'0 0.0
2014-Dec-18 09:32N 36°07' W 005°22'0 0.0
2014-Dec-18 08:32N 36°07' W 005°22'0 0.1
2014-Dec-18 07:29N 36°07' W 005°22'2 2.0
2014-Dec-18 06:20N 36°09' W 005°22'0 0.1
2014-Dec-18 05:32N 36°09' W 005°22'0 0.0
2014-Dec-17 23:32N 36°09' W 005°22'0 0.0
2014-Dec-17 22:23N 36°09' W 005°22'0 0.0
2014-Dec-17 21:32N 36°09' W 005°22'0 0.0
2014-Dec-17 20:20N 36°09' W 005°22'0 0.0
2014-Dec-17 19:26N 36°09' W 005°22'0 0.0
2014-Dec-17 16:31N 36°09' W 005°22'0 0.0
2014-Dec-17 15:25N 36°09' W 005°22'0 0.0
2014-Dec-17 14:31N 36°09' W 005°22'3 3.5
2014-Dec-17 13:33N 36°06' W 005°22'9 9.4
2014-Dec-17 12:33N 35°57' W 005°27'3 0.2
2014-Dec-16 22:19N 35°56' W 005°30'7 8.3
2014-Dec-16 21:30N 36°01' W 005°24'8 7.6
2014-Dec-16 20:30N 36°08' W 005°22'0 0.0
2014-Dec-16 19:30N 36°08' W 005°22'0 0.0
2014-Dec-16 18:30N 36°08' W 005°22'0 0.0
2014-Dec-16 17:30N 36°08' W 005°22'0 0.1
2014-Dec-16 16:30N 36°08' W 005°22'0 0.2
2014-Dec-16 15:33N 36°08' W 005°22'1 0.5
2014-Dec-16 14:29N 36°08' W 005°23'0 0.2
2014-Dec-16 13:30N 36°08' W 005°23'0 0.0
2014-Dec-16 12:15N 36°08' W 005°23'0 0.0
2014-Dec-16 11:27N 36°08' W 005°23'0 0.0
2014-Dec-16 10:27N 36°08' W 005°23'0 0.0
2014-Dec-16 09:33N 36°08' W 005°23'0 0.0
2014-Dec-16 08:21N 36°08' W 005°23'0 0.0
2014-Dec-16 07:20N 36°08' W 005°23'0 0.2
2014-Dec-16 06:32N 36°08' W 005°23'0 0.0
2014-Dec-16 05:33N 36°08' W 005°23'1 0.7
2014-Dec-16 04:07N 36°07' W 005°22'0 0.1
2014-Dec-16 03:31N 36°07' W 005°22'0 0.0
2014-Dec-16 02:25N 36°07' W 005°22'0 0.0
2014-Dec-16 01:10N 36°07' W 005°22'0 0.0
2014-Dec-16 00:16N 36°07' W 005°22'0 0.0
2014-Dec-15 23:28N 36°07' W 005°22'0 0.0
2014-Dec-15 22:31N 36°07' W 005°22'0 0.0
2014-Dec-15 21:31N 36°07' W 005°22'2 2.2
2014-Dec-15 20:33N 36°09' W 005°23'0 0.3
2014-Dec-15 19:22N 36°09' W 005°22'0 0.0
2014-Dec-15 17:19N 36°09' W 005°22'1 0.8
2014-Dec-15 16:34N 36°09' W 005°23'4 4.0
2014-Dec-15 15:33N 36°07' W 005°18'0 0.0
2014-Dec-15 14:12N 36°07' W 005°18'0 0.0
2014-Dec-15 13:27N 36°07' W 005°18'0 0.0
2014-Dec-15 12:03N 36°07' W 005°18'0 0.0
2014-Dec-15 11:33N 36°07' W 005°18'0 0.0
2014-Dec-15 08:33N 36°07' W 005°18'0 0.0
2014-Dec-15 07:33N 36°07' W 005°18'0 0.0
2014-Dec-15 06:33N 36°07' W 005°18'0 0.0
2014-Dec-15 05:09N 36°07' W 005°18'0 0.0
2014-Dec-15 04:30N 36°07' W 005°18'0 0.1
2014-Dec-15 03:30N 36°07' W 005°18'0 0.0
2014-Dec-15 02:33N 36°07' W 005°18'0 0.1
2014-Dec-15 01:24N 36°07' W 005°18'0 0.1
2014-Dec-15 00:33N 36°07' W 005°18'0 0.0
2014-Dec-14 23:09N 36°07' W 005°18'0 0.0
2014-Dec-14 22:26N 36°07' W 005°18'0 0.0
2014-Dec-14 21:32N 36°07' W 005°18'0 0.0
2014-Dec-14 20:32N 36°07' W 005°18'3 3.3
2014-Dec-14 19:33N 36°06' W 005°22'2 1.0
2014-Dec-14 17:09N 36°08' W 005°23'0 0.0
2014-Dec-14 15:33N 36°08' W 005°23'0 0.0
2014-Dec-14 13:21N 36°08' W 005°23'0 0.0
2014-Dec-14 12:05N 36°08' W 005°23'0 0.1
2014-Dec-14 11:29N 36°08' W 005°23'0 0.0
2014-Dec-14 10:33N 36°08' W 005°23'4 3.7
2014-Dec-14 09:33N 36°06' W 005°19'1 1.1
2014-Dec-14 08:29N 36°07' W 005°18'0 0.0
2014-Dec-14 07:32N 36°07' W 005°18'0 0.0
2014-Dec-14 06:32N 36°07' W 005°18'0 0.0
2014-Dec-14 05:29N 36°07' W 005°18'0 0.0
2014-Dec-14 04:17N 36°07' W 005°18'0 0.0
2014-Dec-14 03:32N 36°07' W 005°18'0 0.0
2014-Dec-14 02:32N 36°07' W 005°18'0 0.0
2014-Dec-14 01:32N 36°07' W 005°18'0 0.0
2014-Dec-14 00:29N 36°07' W 005°18'0 0.1
2014-Dec-13 23:32N 36°07' W 005°18'1 1.0
2014-Dec-13 22:33N 36°06' W 005°19'3 2.8
2014-Dec-13 21:26N 36°08' W 005°22'0 0.0
2014-Dec-13 20:32N 36°08' W 005°22'0 0.1
2014-Dec-13 18:32N 36°07' W 005°22'0 0.1
2014-Dec-13 17:29N 36°08' W 005°22'0 0.1
2014-Dec-13 16:32N 36°08' W 005°22'0 0.0
2014-Dec-13 15:32N 36°08' W 005°22'0 0.0
2014-Dec-13 14:29N 36°08' W 005°22'0 0.0
2014-Dec-13 13:32N 36°08' W 005°22'0 0.2
2014-Dec-13 12:10N 36°07' W 005°22'0 0.0
2014-Dec-13 09:22N 36°07' W 005°22'3 3.2
2014-Dec-13 08:33N 36°05' W 005°22'10 9.5
2014-Dec-13 07:33N 35°57' W 005°29'7 0.2
2014-Dec-12 03:09N 35°52' W 005°35'  

Dump ship's entire track history